KDVN/DVN METAR and TAF weather

Enter ICAO airport designator
Station Type Date Time Source
KDVN METAR 2019/12/14 05:52 UTC NOAA

KDVN 140552Z AUTO 00000KT 4SM BR BKN036 BKN065 M02/M03 A2981 RMK AO2 SLP098 T10171028 11006 21028 400221028 56007


Station Type Date Time Source
KDVN Decoded METAR 2019/12/14 05:52 UTC NOAA

DAVENPORT MUNICIPAL AIRPORT, IA, United States (KDVN) 41-37N 90-35W 228M
Dec 14, 2019 - 12:52 AM EST / 2019.12.14 0552 UTC
Wind: Calm:0
Visibility: 4 mile(s):0
Sky conditions: mostly cloudy
Weather: mist
Temperature: 28.9 F (-1.7 C)
Dew Point: 27.0 F (-2.8 C)
Relative Humidity: 92%
Pressure (altimeter): 29.81 in. Hg (1009 hPa)
Pressure tendency: 0.02 inches (0.7 hPa) lower than three hours ago
ob: KDVN 140552Z AUTO 00000KT 4SM BR BKN036 BKN065 M02/M03 A2981 RMK AO2 SLP098 T10171028 11006 21028 400221028 56007
cycle: 6

Station Type Date Time Source
KDVN TAF UTC NOAA

Error!

Example: see airport list